Jorge Hernandez

Chefscout - Union Magdalena
3 Dez 2028
Sonntag
Verarbeitung

Persönlichkeit

Anpassungsfähigkeit (8) Ehrgeiz (3) Kontroverse (1) Loyalität (6) Druck (14) Professionalität (19) Fairness (14) Temperament (17)

Profil

Trainerstil Demokratisch
Lizenz Kontinentale C
Entschlossenheit 3
Menschenführung 4
Motivation 10
Disziplin 9
Arbeitszufriedenheit
100%
Ermüdung
0%
Rolle Chefscout
Gehalt 50.4K p/W
Vertrag 14.03.2029

Leistung

Verhalten Gut
Trainingseffektivität
29%
Spielerentwicklung
55%
Verletzungsprävention
40%
Taktische Umsetzung
20%

Letzte Ereignisse

Spieler begutachtet jetzt
Nahm an einer Scouting-Besprechung teil 7T her
Spieler begutachtet 7T her
Spieler begutachtet 7T her
Spieler begutachtet 7T her
Spieler begutachtet 14T her
Spieler begutachtet 14T her
Spieler begutachtet 14T her

Aktuell beobachtet

197
Spieler Verein Status Fähigkeit Vertrauen Beobachtet Zuletzt beobachtet Letzte Stimme
Daniel Barrea Godoy Cruz Aktiv 125 / 116 40% 4 28.11.2028 -
Ramiro Hernandes Belgrano Aktiv 120 / 126 40% 2 28.11.2028 -
Pablo Cardona Cortulua Aktiv 114 / 123 40% 1 28.11.2028 -
Santiago Gutiérrez Alvarado Aktiv 106 / 106 40% 3 27.11.2028 -
Hernán Toledo Albion Aktiv 123 / 115 40% 3 27.11.2028 -
Nicolás Mosca Atlanta Aktiv 111 / 108 40% 2 27.11.2028 -
Gianluca Pugliese Güemes Aktiv 117 / 108 40% 3 24.11.2028 -
Matías Machado Racing Aktiv 112 / 116 40% 3 24.11.2028 -
Manuel Duarte Barracas Central Aktiv 124 / 123 40% 5 24.11.2028 -
Luciano Cosentino Wanderers Aktiv 126 / 122 40% 6 22.11.2028 -
Kevin Colli Tristán Suárez Aktiv 105 / 100 40% 1 22.11.2028 -
Lautaro Disanto Defensores Unidos Aktiv 117 / 116 40% 6 21.11.2028 -
Allan Saint-Maximin Charlotte Football Club Aktiv 150 / 136 40% 3 21.11.2028 -
Facundo Taborda Racing Aktiv 114 / 108 40% 1 21.11.2028 -
Matías Viguet Maipú Aktiv 113 / 117 40% 3 18.11.2028 -
Bruno Leyes Godoy Cruz Aktiv 129 / 124 40% 2 18.11.2028 -
Emiliano Gómez Boston River Aktiv 120 / 121 40% 6 17.11.2028 -
Juan Sebastián Herrera Deportivo La Guaira Aktiv 118 / 119 40% 5 16.11.2028 -
Tomás Pozzo Godoy Cruz Aktiv 128 / 120 40% 6 16.11.2028 -
David Veliz Güemes Aktiv 106 / 116 40% 2 14.11.2028 -
Mauricio Márquez Caracas Aktiv 110 / 104 40% 3 14.11.2028 -
Leandro Suhr Boston River Aktiv 120 / 118 40% 1 14.11.2028 -
Jefry Zapata Aldosivi Aktiv 124 / 122 40% 2 13.11.2028 -
Matías Ruiz Díaz Estudiantes Aktiv 117 / 109 40% 1 13.11.2028 -
Tomás Porra Barracas Central Aktiv 125 / 120 40% 1 13.11.2028 -
Walter Núñez Montevideo City Torque Aktiv 120 / 119 40% 2 10.11.2028 -
Enzo Trinidad Colegiales Aktiv 113 / 108 40% 3 10.11.2028 -
Marco Miori Alvarado Aktiv 111 / 109 40% 4 09.11.2028 -
Esteban Obregón Montevideo City Torque Aktiv 118 / 123 40% 5 09.11.2028 -
Santiago Sala Güemes Aktiv 110 / 107 40% 5 08.11.2028 -
Federico Versaci Talleres Aktiv 118 / 111 40% 3 08.11.2028 -
Yackson Rivas Deportivo La Guaira Aktiv 116 / 106 40% 2 05.11.2028 -
Brayan Palmezano Deportivo Tachira Aktiv 111 / 106 40% 2 05.11.2028 -
Enzo Silcan Almagro Aktiv 117 / 113 40% 1 05.11.2028 -
Camilo Machado Madryn Aktiv 107 / 106 40% 3 04.11.2028 -
Francisco González Metilli Belgrano Aktiv 127 / 128 40% 3 04.11.2028 -
Sebastián Jaurena San Martín SJ Aktiv 113 / 110 40% 3 03.11.2028 -
Kelvin Flórez Deportes Tolima Aktiv 126 / 114 40% 1 03.11.2028 -
Iñaki Larthirigoyen San Telmo Aktiv 128 / 115 40% 2 01.11.2028 -
Ramiro Peralta Juventud Aktiv 120 / 126 40% 1 01.11.2028 -
Lucas Chiozza Alvarado Aktiv 103 / 101 40% 1 01.11.2028 -
Antonio Napolitano Agropecuario Argentino Aktiv 116 / 113 40% 2 31.10.2028 -
Nicolás Medina Atlanta Aktiv 117 / 107 40% 2 31.10.2028 -
Diego Gaitán Maipú Aktiv 108 / 116 40% 4 30.10.2028 -
Gabriel Obredor Deportivo Riestra Aktiv 114 / 112 40% 1 30.10.2028 -
Tomás Ferreyra Defensores Unidos Aktiv 119 / 111 40% 2 28.10.2028 -
Emiliano Saliadarre Miramar Misiones Aktiv 109 / 109 40% 3 26.10.2028 -
Sergio Núñez Liverpool Montevideo Aktiv 110 / 110 40% 1 26.10.2028 -
Patricio Moyano Defensores Aktiv 122 / 116 40% 5 21.10.2028 -
Agustín Morales Estudiantes Aktiv 117 / 109 40% 2 21.10.2028 -
John Córdoba Millonarios Aktiv 126 / 115 40% 6 20.10.2028 -
Federico Álvarez Dinamo Tbilisi Aktiv 109 / 115 40% 3 19.10.2028 -
Miguel Ceccotti Güemes Aktiv 107 / 104 40% 1 15.10.2028 -
Carlos Cantillo Jaguares Aktiv 109 / 122 40% 1 14.10.2028 -
Gastón Moreyra Almirante Brown Aktiv 112 / 112 40% 1 14.10.2028 -
Yuber Quiñónes Patriotas Aktiv 129 / 115 40% 1 13.10.2028 -
Federico Bisanz Atlanta Aktiv 117 / 114 40% 1 12.10.2028 -
Mauro Valiente Estudiantes Aktiv 114 / 122 40% 2 11.10.2028 -
Matías Sosa Arsenal Aktiv 108 / 117 40% 2 11.10.2028 -
Thiago Lauro Morón Aktiv 110 / 118 40% 3 10.10.2028 -
Ronaldo Peña Deportivo Lara Aktiv 101 / 102 40% 3 10.10.2028 -
Antonio Galeano Remo Stars Aktiv 131 / 118 40% 3 09.10.2028 -
Ignacio Yepez Cerrito Aktiv 119 / 110 40% 2 07.10.2028 -
Ariel Castellano Alvarado Aktiv 108 / 93 40% 1 06.10.2028 -
Gonzalo Asis Almagro Aktiv 107 / 110 40% 1 06.10.2028 -
Juan Velázquez Belgrano Aktiv 121 / 121 40% 1 05.10.2028 -
Franco Hanashiro Colegiales Aktiv 105 / 114 40% 1 05.10.2028 -
Tomás Escalante River Plate Aktiv 126 / 129 40% 2 02.10.2028 -
Matías Bergara Nueva Chicago Aktiv 120 / 108 40% 1 02.10.2028 -
Nahuel Curcio Colón Aktiv 122 / 124 40% 5 28.09.2028 -
Johan Campaña Patriotas Aktiv 120 / 103 40% 1 27.09.2028 -
Ramón González Almirante Brown Aktiv 110 / 110 40% 1 27.09.2028 -
Maximiliano Rueda Patronato Aktiv 115 / 111 40% 1 24.09.2028 -
Alejo Dramisino Atlanta Aktiv 120 / 120 40% 2 23.09.2028 -
Nicolás Retamar Ferro Carril Oeste Aktiv 122 / 121 40% 2 17.09.2028 -
Tobías Leiva Estudiantes Aktiv 119 / 122 40% 1 16.09.2028 -
Diego García Danubio Aktiv 115 / 119 40% 2 15.09.2028 -
Jerónimo Porto Lapegüe San Telmo Aktiv 109 / 113 40% 1 15.09.2028 -
Diogo Guzmán Montevideo City Torque Aktiv 116 / 124 40% 1 13.09.2028 -
Facundo Nadalín San Martín SJ Aktiv 117 / 118 40% 1 11.09.2028 -
Román Gamarra San Telmo Aktiv 110 / 106 40% 1 10.09.2028 -
Enzo González Defensores Aktiv 106 / 107 40% 1 09.09.2028 -
Nicolás Ferreira Wanderers Aktiv 119 / 119 40% 1 09.09.2028 -
Jeizon Ramírez Chacón Metropolitanos Aktiv 98 / 95 40% 1 07.09.2028 -
Santiago Longo Belgrano Aktiv 123 / 124 40% 1 07.09.2028 -
Enzo Hoyos Ferro Carril Oeste Aktiv 123 / 112 40% 1 05.09.2028 -
Martín Campos Ferro Carril Oeste Aktiv 126 / 122 40% 2 03.09.2028 -
Lucas Rodríguez Albion Aktiv 114 / 113 40% 1 03.09.2028 -
Clemente Montes Santiago Wanderers Aktiv 131 / 125 40% 1 03.09.2028 -
José Barreto Quilmes Aktiv 114 / 112 40% 3 01.09.2028 -
Rafael Moreno Atletico Venezuela Aktiv 115 / 105 40% 2 01.09.2028 -
Santiago Moyano Central Córdoba SdE Aktiv 117 / 113 40% 1 31.08.2028 -
Juan Carlos Castellano Deportivo La Guaira Aktiv 104 / 103 40% 1 31.08.2028 -
Franco Nicola Liverpool Montevideo Aktiv 122 / 112 40% 1 30.08.2028 -
Lautaro Calderón Asante Kotoko Aktiv 109 / 104 40% 1 26.08.2028 -
Jonás Luna Wanderers Aktiv 124 / 123 40% 1 26.08.2028 -
Abraham Bahachille Carabobo Aktiv 111 / 103 40% 1 24.08.2028 -
Hakim Sulemana Ashanti Gold Aktiv 118 / 111 40% 1 23.08.2028 -
Alessandro Arena Arezzo Aktiv 135 / 112 40% 1 19.08.2028 -
Delvin Alfonzo Deportivo Tachira Aktiv 114 / 110 40% 1 18.08.2028 -
Kike Pérez Venezia Aktiv 136 / 146 40% 1 18.08.2028 -
Richard Figueroa Deportivo Lara Aktiv 102 / 99 40% 1 14.08.2028 -
Idrissa Touré Monza Aktiv 138 / 153 40% 1 14.08.2028 -
Vicente Poggi Godoy Cruz Aktiv 120 / 123 40% 1 10.08.2028 -
Adam Phillips Northampton Town Aktiv 123 / 108 40% 1 09.08.2028 -
Benicio Baker-Boaitey Mansfield Town Aktiv 129 / 109 40% 1 08.08.2028 -
Atsuki Ito Bolton Wanderers Aktiv 133 / 124 40% 1 08.08.2028 -
Carlos Gugenheim Grimsby Town Aktiv 114 / 119 40% 1 08.08.2028 -
Max Conway Bolton Wanderers Aktiv 125 / 132 40% 1 07.08.2028 -
Kane Wilson Milton Keynes Dons Aktiv 120 / 120 40% 1 04.08.2028 -
Ar'jany Martha Rotherham United Aktiv 126 / 120 40% 1 04.08.2028 -
Ethan Erhahon Cheltenham Town Aktiv 121 / 119 40% 1 21.06.2028 -
Milton Castagna Walsall Aktiv 100 / 107 40% 1 21.06.2028 -
Matthew Litherland Harrogate Town Aktiv 112 / 114 40% 1 20.06.2028 -
George Earthy Reading Aktiv 111 / 119 40% 1 20.06.2028 -
Matty Stevens AFC Wimbledon Aktiv 90 / 97 40% 6 30.05.2027 -
Alassana Jatta Notts County Aktiv 108 / 114 40% 1 23.05.2027 -
Ekain Orobengoa Real Sociedad Aktiv 111 / 107 40% 3 22.05.2027 -
John Yeboah Venezia Aktiv 118 / 131 40% 2 22.05.2027 -
Richard Koné Queens Park Rangers Aktiv 113 / 117 40% 1 21.05.2027 -
Don Bolsius Ascoli Aktiv 106 / 98 40% 1 20.05.2027 -
Rui Costa Port Vale Aktiv 100 / 94 40% 3 15.05.2027 -
Filippo Distefano Empoli Aktiv 127 / 125 40% 1 15.05.2027 -
Tyreece Campbell Charlton Athletic Aktiv 121 / 116 40% 2 13.05.2027 -
Callum Lang Preston Aktiv 111 / 123 40% 1 13.05.2027 -
Samuel Kalu Botev Plovdiv Aktiv 127 / 125 40% 5 12.05.2027 -
Elijah Adebayo Luton Town Aktiv 124 / 126 40% 1 11.05.2027 -
Ioannis Pittas CSKA Sofia Aktiv 117 / 135 40% 1 06.05.2027 -
Ettore Gliozzi Mantova Aktiv 131 / 114 40% 1 02.05.2027 -
Malik Mothersille Stockport County Aktiv 109 / 100 40% 3 01.05.2027 -
Marco Tumminello Benevento Aktiv 115 / 106 40% 2 29.04.2027 -
Stephen Humphrys Bradford City Aktiv 108 / 120 40% 4 29.04.2027 -
Justo Giani Umraniyespor Aktiv 116 / 133 40% 4 28.04.2027 -
Martin Sekulić Ural Aktiv 100 / 98 40% 2 28.04.2027 -
Lorent Tolaj Plymouth Argyle Aktiv 109 / 124 40% 3 26.04.2027 -
Sam Nombe Milton Keynes Dons Aktiv 125 / 123 40% 3 26.04.2027 -
Federico Martínez MFK Ruzomberok Aktiv 123 / 131 40% 2 25.04.2027 -
Aaron Drinan Swindon Town Aktiv 101 / 85 40% 1 18.04.2027 -
Dale Taylor Blackpool Aktiv 114 / 105 40% 4 17.04.2027 -
Aidomo Emakhu Oxford United Aktiv 112 / 137 40% 1 14.04.2027 -
Tyrese Shade Burton Albion Aktiv 86 / 111 40% 1 12.04.2027 -
Peter Itodo Metalist Aktiv 101 / 114 40% 2 08.04.2027 -
Alberto Cerri Cesena Aktiv 128 / 111 40% 1 07.04.2027 -
Eric Ramírez Ankaragucu Aktiv 127 / 115 40% 1 07.04.2027 -
Giacomo Zecca Torres Aktiv 112 / 87 40% 1 04.04.2027 -
Kyle Wootton Stockport County Aktiv 136 / 131 40% 2 30.03.2027 -
Will Swan Bradford City Aktiv 94 / 111 40% 1 30.03.2027 -
Job Ochieng Real Sociedad Aktiv 112 / 121 40% 2 26.03.2027 -
Mees Rijks Bristol Rovers Aktiv 118 / 102 40% 1 26.03.2027 -
Egas Cacintura Akhmat Grozny Aktiv 127 / 104 40% 1 23.03.2027 -
Oleh Kozhushko Bukovyna Aktiv 119 / 87 40% 1 20.03.2027 -
Oleksii Hutsuliak Polissia Aktiv 121 / 137 40% 1 18.03.2027 -
Robertino Giacomini Panserraikos Aktiv 98 / 105 40% 1 17.03.2027 -
Moussakoye Diallo Stade Malien Aktiv 109 / 112 40% 1 17.03.2027 -
Luca Moro Padova Aktiv 106 / 114 40% 1 16.03.2027 -
Anatole Abang USM Alger Aktiv 115 / 104 40% 1 15.03.2027 -
Salah Mohsen El Masry Aktiv 113 / 124 40% 2 14.03.2027 -
Samuel Tetteh Liberty Professionals Aktiv 104 / 91 40% 1 12.03.2027 -
Wandile Duba ASO Chlef Aktiv 93 / 101 40% 2 10.03.2027 -
Stiven Shpendi Empoli Aktiv 127 / 131 40% 1 10.03.2027 -
Kamran Aliev SKA Khabarovsk Aktiv 92 / 83 40% 1 08.03.2027 -
Ilja Safronov Rotor Aktiv 105 / 110 40% 1 06.03.2027 -
Brayan Gil Baltika Aktiv 137 / 111 40% 3 02.03.2027 -
Ondřej Lingr Korona Aktiv 133 / 138 40% 1 01.03.2027 -
Nardin Mulahusejnović Vojvodina Aktiv 108 / 129 40% 2 27.02.2027 -
Thierry Ambrose KV Kortrijk Aktiv 115 / 131 40% 1 22.02.2027 -
Sam Dalby Bolton Wanderers Aktiv 125 / 114 40% 1 13.02.2027 -
Vyacheslav Grulev Nizhniy Novgorod Aktiv 108 / 121 40% 2 12.02.2027 -
Stanislav Ivanov Arda Aktiv 129 / 124 40% 1 06.02.2027 -
Patrick Schmidt Tarxien Rainbows Aktiv 95 / 93 40% 1 05.02.2027 -
David Ankeye Zeleznicar Pancevo Aktiv 113 / 119 40% 1 03.02.2027 -
Yeangel Montero Naxxar Lions Aktiv 98 / 96 40% 1 02.02.2027 -
Antony Alonso Deportivo Riestra Aktiv 132 / 131 40% 1 01.02.2027 -
Marezi Portsmouth Aktiv 114 / 112 40% 1 28.11.2026 -
Marcos Cuenca Zaragoza Aktiv 96 / 120 40% 1 26.11.2026 -
Alejandro Piedrahita Deportivo Pereira Aktiv 131 / 127 40% 1 26.11.2026 -
Lautaro Gordillo Colegiales Aktiv 120 / 120 40% 1 23.11.2026 -
Agustín Gallo Tristán Suárez Aktiv 112 / 117 40% 1 17.11.2026 -
Lucas Varaldo Morelia Aktiv 132 / 111 40% 2 15.11.2026 -
José Alvarado Leon Aktiv 118 / 108 40% 1 15.11.2026 -
Favio Cabral Mitre Aktiv 122 / 109 40% 1 12.11.2026 -
Ignacio Russo Tigre Aktiv 119 / 124 40% 1 04.11.2026 -
Renzo Reynaga Patronato Aktiv 108 / 104 40% 1 02.11.2026 -
Augusto Berrondo Tristán Suárez Aktiv 103 / 117 40% 1 31.10.2026 -
Wessam Abou Ali Columbus Crew Aktiv 128 / 135 40% 1 30.10.2026 -
Mohamed-Ali Cho Hull City Aktiv 122 / 150 40% 1 29.10.2026 -
Pedro Vite Pumas UNAM Aktiv 108 / 112 40% 1 25.10.2026 -
Ramiro Ruiz Rodríguez Atlético Tucumán Aktiv 124 / 116 40% 1 25.10.2026 -
Fabrizio Sartori Independiente Rivadavia Aktiv 119 / 126 40% 1 24.10.2026 -
Lucas Acosta Liverpool Montevideo Aktiv 109 / 110 40% 1 22.10.2026 -
Bénie Traoré New York City Aktiv 115 / 107 40% 1 22.10.2026 -
Santiago Toloza O'Higgins Aktiv 122 / 115 40% 1 21.10.2026 -
Rodrigo López Pumas UNAM Aktiv 130 / 129 40% 1 20.10.2026 -
Franco Zapiola Platense Aktiv 124 / 127 40% 1 20.10.2026 -
Alex Luna Instituto Aktiv 139 / 120 40% 1 18.10.2026 -
Bryan González Guadalajara Aktiv 131 / 124 40% 1 01.08.2026 -
Giovanni González River Plate Aktiv 129 / 134 40% 1 01.08.2026 -